createdAt,value
2018-07-11T00:00:35.255Z,14.53
2018-07-11T00:03:05.310Z,15.30
2018-07-11T00:05:34.804Z,13.47
2018-07-11T00:08:04.208Z,14.07
2018-07-11T00:10:33.605Z,15.60
2018-07-11T00:13:02.977Z,15.30
2018-07-11T00:15:32.394Z,14.67
2018-07-11T00:18:01.776Z,15.47
2018-07-11T00:20:31.180Z,15.40
2018-07-11T00:23:00.578Z,15.83
2018-07-11T00:25:29.993Z,16.40
2018-07-11T00:27:59.396Z,15.20
2018-07-11T00:30:28.858Z,17.10
2018-07-11T00:32:58.258Z,16.53
2018-07-11T00:35:27.656Z,15.93
2018-07-11T00:37:57.105Z,16.20
2018-07-11T00:40:26.636Z,16.40
2018-07-11T00:42:56.350Z,16.43
2018-07-11T00:45:25.827Z,16.00
2018-07-11T00:47:55.254Z,16.90
2018-07-11T00:50:24.646Z,16.10
2018-07-11T00:52:54.151Z,17.27
2018-07-11T00:55:23.658Z,16.50
2018-07-11T00:57:53.063Z,17.37
2018-07-11T01:00:22.433Z,16.07
2018-07-11T01:02:51.946Z,16.30
2018-07-11T01:05:21.381Z,16.73
2018-07-11T01:07:50.891Z,17.17
2018-07-11T01:10:20.577Z,18.03
2018-07-11T01:12:50.419Z,17.13
2018-07-11T01:15:19.993Z,17.60
2018-07-11T01:17:54.981Z,16.47
2018-07-11T01:20:24.358Z,17.40
2018-07-11T01:22:53.729Z,16.67
2018-07-11T01:25:23.210Z,18.20
2018-07-11T01:27:53.322Z,16.77
2018-07-11T01:30:29.242Z,16.83
2018-07-11T01:32:58.682Z,16.60
2018-07-11T01:35:28.050Z,15.97
2018-07-11T01:37:57.814Z,16.23
2018-07-11T01:40:27.210Z,17.70
2018-07-11T01:42:56.589Z,16.20
2018-07-11T01:45:26.001Z,16.03
2018-07-11T01:47:55.535Z,16.93
2018-07-11T01:50:25.084Z,17.20
2018-07-11T01:52:58.437Z,17.40
2018-07-11T01:55:28.453Z,15.93
2018-07-11T01:57:59.834Z,16.23
2018-07-11T02:00:30.398Z,16.20
2018-07-11T02:02:59.974Z,16.53
2018-07-11T02:05:29.364Z,17.47
2018-07-11T02:07:58.850Z,16.47
2018-07-11T02:10:29.256Z,15.93
2018-07-11T02:12:59.399Z,17.33
2018-07-11T02:15:28.850Z,15.60
2018-07-11T02:17:58.548Z,16.67
2018-07-11T02:20:27.982Z,16.07
2018-07-11T02:22:57.416Z,15.87
2018-07-11T02:25:27.235Z,15.87
2018-07-11T02:27:56.837Z,15.83
2018-07-11T02:30:26.596Z,15.30
2018-07-11T02:32:56.009Z,15.33
2018-07-11T02:35:25.459Z,14.43
2018-07-11T02:37:54.867Z,15.87
2018-07-11T02:40:24.202Z,16.43
2018-07-11T02:42:53.579Z,15.17
2018-07-11T02:45:23.366Z,15.53
2018-07-11T02:47:52.739Z,16.47
2018-07-11T02:50:22.361Z,15.40
2018-07-11T02:52:54.687Z,15.83
2018-07-11T02:55:24.399Z,15.67
2018-07-11T02:57:53.758Z,16.73
2018-07-11T03:00:23.134Z,16.40
2018-07-11T03:02:52.842Z,16.77
2018-07-11T03:05:22.797Z,16.97
2018-07-11T03:07:52.229Z,16.37
2018-07-11T03:10:21.696Z,17.83
2018-07-11T03:12:51.091Z,18.63
2018-07-11T03:15:20.638Z,17.20
2018-07-11T03:17:50.114Z,17.60
2018-07-11T03:20:19.645Z,17.63
2018-07-11T03:22:50.102Z,19.10
2018-07-11T03:25:19.497Z,16.93
2018-07-11T03:27:49.017Z,20.47
2018-07-11T03:30:18.532Z,19.00
2018-07-11T03:32:47.957Z,17.63
2018-07-11T03:35:17.696Z,15.27
2018-07-11T03:37:47.158Z,18.13
2018-07-11T03:40:16.603Z,17.20
2018-07-11T03:42:46.053Z,15.40
2018-07-11T03:45:15.428Z,15.30
2018-07-11T03:47:46.342Z,15.07
2018-07-11T03:50:15.820Z,15.17
2018-07-11T03:52:45.681Z,14.67
2018-07-11T03:55:14.993Z,15.13
2018-07-11T03:57:44.389Z,14.70
2018-07-11T04:00:14.388Z,15.47
2018-07-11T04:02:43.823Z,14.77
2018-07-11T04:05:13.205Z,13.27
2018-07-11T04:07:42.946Z,14.87
2018-07-11T04:10:12.402Z,13.50
2018-07-11T04:12:41.920Z,14.03
2018-07-11T04:15:11.323Z,16.20
2018-07-11T04:17:40.717Z,15.03
2018-07-11T04:20:10.105Z,14.13
2018-07-11T04:22:39.647Z,14.70
2018-07-11T04:25:09.387Z,14.03
2018-07-11T04:27:38.763Z,14.13
2018-07-11T04:30:08.247Z,14.60
2018-07-11T04:32:37.638Z,14.60
2018-07-11T04:35:07.037Z,16.43
2018-07-11T04:37:36.469Z,14.43
2018-07-11T04:40:05.998Z,13.70
2018-07-11T04:42:35.437Z,11.07
2018-07-11T04:45:04.907Z,10.90
2018-07-11T04:47:34.403Z,10.07
2018-07-11T04:50:04.141Z,11.83
2018-07-11T04:52:33.547Z,9.57
2018-07-11T04:55:02.970Z,11.07
2018-07-11T04:57:32.381Z,12.80
2018-07-11T05:00:01.753Z,9.47
2018-07-11T05:02:31.209Z,9.77
2018-07-11T05:05:00.652Z,10.40
2018-07-11T05:07:31.595Z,9.27
2018-07-11T05:10:01.234Z,10.67
2018-07-11T05:12:30.782Z,11.10
2018-07-11T05:15:00.227Z,9.77
2018-07-11T05:17:29.631Z,9.17
2018-07-11T05:19:59.099Z,12.60
2018-07-11T05:22:29.133Z,10.30
2018-07-11T05:24:58.635Z,8.47
2018-07-11T05:27:28.348Z,10.37
2018-07-11T05:29:57.811Z,6.47
2018-07-11T05:32:27.801Z,6.37
2018-07-11T05:34:57.205Z,7.27
2018-07-11T05:37:26.607Z,7.27
2018-07-11T05:39:56.009Z,4.87
2018-07-11T05:42:25.443Z,4.47
2018-07-11T05:44:54.841Z,6.33
2018-07-11T05:47:24.267Z,5.53
2018-07-11T05:49:54.767Z,7.10
2018-07-11T05:52:24.935Z,6.17
2018-07-11T05:54:58.843Z,6.63
2018-07-11T05:57:29.239Z,5.63
2018-07-11T05:59:59.641Z,6.70
2018-07-11T06:02:29.255Z,4.60
2018-07-11T06:04:59.872Z,6.30
2018-07-11T06:07:29.996Z,4.47
2018-07-11T06:09:59.492Z,5.87
2018-07-11T06:12:29.021Z,5.00
2018-07-11T06:14:58.638Z,5.33
2018-07-11T06:17:28.168Z,4.60
2018-07-11T06:19:57.938Z,5.90
2018-07-11T06:22:27.569Z,7.33
2018-07-11T06:24:57.481Z,7.97
2018-07-11T06:27:26.929Z,4.30
2018-07-11T06:29:56.363Z,6.47
2018-07-11T06:32:25.838Z,6.73
2018-07-11T06:34:55.225Z,4.33
2018-07-11T06:37:24.983Z,7.00
2018-07-11T06:39:54.446Z,4.77
2018-07-11T06:42:23.654Z,6.50
2018-07-11T06:44:53.131Z,6.07
2018-07-11T06:47:22.635Z,5.73
2018-07-11T06:49:52.453Z,7.07
2018-07-11T06:52:22.146Z,2.90
2018-07-11T06:54:51.664Z,6.00
2018-07-11T06:57:21.403Z,5.93
2018-07-11T06:59:50.879Z,3.40
2018-07-11T07:02:21.365Z,6.63
2018-07-11T07:04:51.420Z,3.53
2018-07-11T07:07:20.881Z,4.30
2018-07-11T07:09:50.844Z,5.27
2018-07-11T07:12:20.776Z,4.30
2018-07-11T07:14:50.281Z,5.73
2018-07-11T07:17:19.705Z,3.67
2018-07-11T07:19:49.166Z,4.73
2018-07-11T07:22:18.782Z,3.33
2018-07-11T07:24:48.285Z,3.80
2018-07-11T07:27:17.690Z,11.63
2018-07-11T07:29:47.098Z,4.07
2018-07-11T07:32:16.534Z,6.20
2018-07-11T07:34:46.041Z,4.37
2018-07-11T07:37:15.381Z,3.83
2018-07-11T07:39:44.530Z,4.70
2018-07-11T07:42:13.954Z,6.17
2018-07-11T07:44:43.487Z,6.47
2018-07-11T07:47:18.131Z,9.87
2018-07-11T07:49:47.589Z,4.87
2018-07-11T07:52:17.013Z,4.47
2018-07-11T07:54:46.494Z,7.87
2018-07-11T07:57:15.982Z,3.70
2018-07-11T07:59:45.883Z,5.13
2018-07-11T08:02:15.409Z,6.87
2018-07-11T08:04:48.977Z,4.87
2018-07-11T08:07:18.416Z,3.37
2018-07-11T08:09:47.907Z,5.93
2018-07-11T08:12:17.410Z,5.93
2018-07-11T08:14:46.856Z,4.10
2018-07-11T08:17:16.256Z,5.60
2018-07-11T08:19:45.699Z,4.53
2018-07-11T08:22:39.557Z,4.20
2018-07-11T08:25:26.175Z,5.37
2018-07-11T08:28:12.167Z,3.57
2018-07-11T08:30:55.975Z,6.70
2018-07-11T08:34:18.556Z,4.20
2018-07-11T08:39:06.292Z,5.50
2018-07-11T08:42:30.395Z,3.50
2018-07-11T08:45:15.216Z,10.57
2018-07-11T08:48:00.001Z,3.10
2018-07-11T08:52:45.713Z,5.57
2018-07-11T08:56:45.093Z,2.40
2018-07-11T09:00:34.249Z,4.07
2018-07-11T09:03:17.368Z,3.87
2018-07-11T09:06:08.470Z,4.03
2018-07-11T09:08:59.064Z,4.03
2018-07-11T09:11:46.236Z,6.33
2018-07-11T09:14:33.637Z,3.37
2018-07-11T09:19:33.352Z,6.20
2018-07-11T09:22:23.890Z,3.30
2018-07-11T09:24:53.429Z,3.30
2018-07-11T09:27:22.928Z,3.33
2018-07-11T09:29:52.471Z,3.70
2018-07-11T09:32:21.978Z,5.13
2018-07-11T09:34:51.394Z,5.03
2018-07-11T09:37:20.932Z,5.63
2018-07-11T09:39:50.353Z,3.97
2018-07-11T09:42:20.105Z,7.23
2018-07-11T09:44:49.587Z,4.63
2018-07-11T09:47:24.262Z,3.10
2018-07-11T09:49:53.723Z,4.10
2018-07-11T09:52:23.572Z,5.10
2018-07-11T09:54:53.457Z,2.87
2018-07-11T09:57:23.577Z,4.37
2018-07-11T09:59:53.306Z,2.30
2018-07-11T10:02:22.853Z,4.20
2018-07-11T10:04:52.828Z,3.80
2018-07-11T10:07:23.099Z,8.17
2018-07-11T10:09:52.748Z,4.87
2018-07-11T10:12:22.296Z,3.13
2018-07-11T10:14:52.171Z,2.73
2018-07-11T10:17:21.825Z,4.17
2018-07-11T10:19:51.315Z,4.53
2018-07-11T10:22:20.766Z,6.60
2018-07-11T10:24:50.272Z,5.77
2018-07-11T10:27:26.401Z,5.87
2018-07-11T10:29:55.802Z,7.17
2018-07-11T10:32:25.214Z,4.07
2018-07-11T10:34:54.752Z,3.43
2018-07-11T10:37:24.232Z,6.07
2018-07-11T10:39:53.750Z,5.33
2018-07-11T10:42:23.275Z,2.70
2018-07-11T10:44:52.744Z,4.83
2018-07-11T10:47:22.231Z,5.13
2018-07-11T10:49:51.840Z,4.70
2018-07-11T10:52:22.218Z,10.33
2018-07-11T10:54:52.013Z,4.27
2018-07-11T10:57:21.437Z,3.73
2018-07-11T10:59:51.350Z,3.90
2018-07-11T11:02:23.331Z,4.30
2018-07-11T11:04:52.948Z,5.07
2018-07-11T11:07:22.480Z,3.23
2018-07-11T11:09:52.147Z,6.73
2018-07-11T11:12:21.617Z,5.67
2018-07-11T11:14:51.361Z,5.37
2018-07-11T11:17:20.871Z,9.50
2018-07-11T11:19:50.344Z,3.07
2018-07-11T11:22:19.732Z,5.10
2018-07-11T11:24:49.110Z,5.63
2018-07-11T11:27:18.536Z,8.43
2018-07-11T11:29:47.963Z,6.90
2018-07-11T11:32:17.418Z,10.07
2018-07-11T11:34:47.133Z,7.17
2018-07-11T11:37:16.535Z,6.13
2018-07-11T11:39:45.974Z,6.57
2018-07-11T11:42:15.561Z,8.83
2018-07-11T11:44:44.869Z,5.33
2018-07-11T11:47:14.365Z,5.20
2018-07-11T11:49:43.878Z,7.33
2018-07-11T11:52:13.283Z,7.03
2018-07-11T11:54:42.679Z,6.37
2018-07-11T11:57:12.720Z,6.27
2018-07-11T11:59:42.282Z,11.03
2018-07-11T12:02:11.623Z,7.93
2018-07-11T12:04:41.008Z,6.23
2018-07-11T12:07:10.239Z,5.63
2018-07-11T12:09:39.621Z,7.10
2018-07-11T12:12:09.010Z,8.87
2018-07-11T12:14:38.414Z,9.03
2018-07-11T12:17:07.840Z,7.83
2018-07-11T12:19:37.426Z,7.00
2018-07-11T12:22:07.441Z,8.50
2018-07-11T12:24:36.879Z,6.97
2018-07-11T12:27:07.883Z,7.57
2018-07-11T12:29:37.373Z,6.53
2018-07-11T12:32:06.878Z,7.63
2018-07-11T12:34:36.259Z,6.30
2018-07-11T12:37:05.664Z,8.87
2018-07-11T12:39:35.038Z,5.70
2018-07-11T12:42:04.549Z,7.93
2018-07-11T12:44:33.942Z,7.43
2018-07-11T12:47:03.459Z,4.90
2018-07-11T12:49:32.888Z,6.77
2018-07-11T12:52:02.302Z,8.43
2018-07-11T12:54:32.161Z,7.80
2018-07-11T12:57:01.582Z,6.77
2018-07-11T12:59:30.935Z,7.77
2018-07-11T13:02:00.349Z,8.50
2018-07-11T13:04:30.150Z,5.27
2018-07-11T13:06:59.589Z,7.07
2018-07-11T13:09:29.028Z,9.03
2018-07-11T13:11:58.515Z,7.40
2018-07-11T13:14:27.960Z,6.10
2018-07-11T13:16:57.336Z,6.13
2018-07-11T13:19:26.777Z,7.10
2018-07-11T13:21:56.207Z,6.93
2018-07-11T13:24:25.653Z,10.07
2018-07-11T13:26:54.818Z,8.13
2018-07-11T13:29:24.341Z,7.30
2018-07-11T13:31:53.884Z,7.40
2018-07-11T13:34:23.277Z,9.30
2018-07-11T13:36:52.893Z,7.27
2018-07-11T13:39:23.201Z,8.73
2018-07-11T13:41:53.032Z,6.57
2018-07-11T13:44:22.491Z,7.87
2018-07-11T13:46:51.987Z,5.93
2018-07-11T13:49:21.459Z,7.67
2018-07-11T13:51:50.910Z,6.87
2018-07-11T13:54:20.312Z,7.30
2018-07-11T13:56:49.910Z,7.27
2018-07-11T13:59:19.458Z,6.53
2018-07-11T14:01:48.881Z,5.53
2018-07-11T14:04:18.435Z,4.87
2018-07-11T14:06:47.930Z,4.97
2018-07-11T14:09:17.412Z,5.90
2018-07-11T14:11:46.918Z,8.17
2018-07-11T14:14:16.322Z,4.20
2018-07-11T14:16:45.806Z,5.60
2018-07-11T14:19:15.237Z,5.20
2018-07-11T14:21:44.634Z,5.67
2018-07-11T14:24:14.616Z,5.17
2018-07-11T14:26:44.606Z,5.73
2018-07-11T14:29:14.106Z,7.50
2018-07-11T14:31:43.834Z,5.17
2018-07-11T14:34:13.212Z,5.03
2018-07-11T14:36:42.573Z,6.40
2018-07-11T14:39:11.962Z,6.93
2018-07-11T14:41:41.461Z,6.90
2018-07-11T14:44:10.862Z,6.33
2018-07-11T14:46:40.220Z,5.97
2018-07-11T14:49:09.765Z,8.07
2018-07-11T14:51:39.243Z,4.50
2018-07-11T14:54:08.538Z,7.77
2018-07-11T14:56:37.938Z,10.43
2018-07-11T14:59:07.382Z,12.67
2018-07-11T15:01:36.800Z,6.20
2018-07-11T15:04:06.524Z,7.13
2018-07-11T15:06:35.962Z,8.00
2018-07-11T15:09:06.243Z,10.73
2018-07-11T15:11:35.912Z,10.23
2018-07-11T15:14:05.461Z,7.47
2018-07-11T15:16:35.139Z,9.33
2018-07-11T15:19:04.588Z,9.97
2018-07-11T15:21:34.154Z,7.33
2018-07-11T15:24:03.686Z,10.17
2018-07-11T15:26:33.343Z,8.60
2018-07-11T15:29:09.486Z,6.43
2018-07-11T15:31:38.981Z,6.97
2018-07-11T15:34:08.658Z,7.83
2018-07-11T15:36:38.132Z,9.03
2018-07-11T15:39:07.763Z,8.13
2018-07-11T15:41:37.720Z,9.43
2018-07-11T15:44:07.315Z,9.30
2018-07-11T15:46:37.238Z,7.53
2018-07-11T15:49:06.646Z,11.30
2018-07-11T15:51:36.919Z,7.40
2018-07-11T15:54:06.492Z,12.60
2018-07-11T15:56:35.967Z,7.67
2018-07-11T15:59:11.001Z,10.60
2018-07-11T16:01:49.886Z,7.60
2018-07-11T16:04:39.599Z,6.30
2018-07-11T16:07:09.978Z,7.23
2018-07-11T16:09:54.382Z,6.47
2018-07-11T16:12:24.455Z,7.40
2018-07-11T16:14:54.282Z,7.43
2018-07-11T16:17:24.370Z,8.40
2018-07-11T16:19:53.849Z,5.57
2018-07-11T16:22:23.611Z,7.40
2018-07-11T16:24:53.097Z,5.47
2018-07-11T16:27:22.622Z,12.27
2018-07-11T16:29:52.156Z,6.87
2018-07-11T16:32:21.618Z,8.97
2018-07-11T16:34:51.490Z,6.63
2018-07-11T16:37:24.227Z,7.47
2018-07-11T16:39:53.993Z,7.13
2018-07-11T16:42:23.448Z,7.27
2018-07-11T16:44:52.948Z,8.73
2018-07-11T16:47:22.872Z,7.47
2018-07-11T16:49:52.627Z,6.20
2018-07-11T16:52:22.176Z,6.37
2018-07-11T16:54:51.639Z,7.80
2018-07-11T16:57:56.493Z,8.33
2018-07-11T17:00:32.400Z,10.70
2018-07-11T17:03:06.431Z,6.70
2018-07-11T17:05:53.540Z,8.33
2018-07-11T17:08:32.290Z,7.60
2018-07-11T17:11:17.852Z,6.03
2018-07-11T17:14:05.253Z,7.50
2018-07-11T17:17:00.526Z,7.93
2018-07-11T17:19:38.363Z,6.90
2018-07-11T17:22:08.683Z,8.23
2018-07-11T17:24:45.531Z,8.33
2018-07-11T17:27:15.198Z,8.73
2018-07-11T17:29:46.996Z,7.80
2018-07-11T17:32:16.497Z,10.43
2018-07-11T17:34:46.222Z,7.03
2018-07-11T17:37:16.175Z,8.50
2018-07-11T17:39:54.278Z,10.63
2018-07-11T17:42:27.356Z,7.20
2018-07-11T17:45:24.042Z,8.27
2018-07-11T17:50:15.043Z,17.97
2018-07-11T17:53:00.443Z,35.80
2018-07-11T17:55:35.672Z,12.37
2018-07-11T17:58:09.597Z,8.70
2018-07-11T18:01:05.721Z,7.33
2018-07-11T18:03:57.228Z,8.37
2018-07-11T18:07:14.304Z,8.10
2018-07-11T18:10:01.669Z,6.37
2018-07-11T18:12:55.933Z,6.27
2018-07-11T18:15:53.979Z,5.47
2018-07-11T18:18:44.820Z,7.43
2018-07-11T18:22:26.771Z,4.20
2018-07-11T18:27:19.541Z,6.53
2018-07-11T18:30:13.996Z,6.40
2018-07-11T18:33:02.208Z,6.13
2018-07-11T18:36:08.625Z,6.43
2018-07-11T18:38:55.067Z,5.10
2018-07-11T18:41:37.425Z,5.97
2018-07-11T18:45:04.733Z,6.30
2018-07-11T18:48:03.144Z,4.77
2018-07-11T18:50:45.960Z,8.03
2018-07-11T18:53:34.542Z,4.63
2018-07-11T18:56:15.230Z,4.83
2018-07-11T18:58:57.843Z,5.10
2018-07-11T19:02:47.115Z,3.83
2018-07-11T19:05:38.085Z,6.70
2018-07-11T19:08:29.231Z,7.07
2018-07-11T19:11:26.565Z,4.17
2018-07-11T19:14:05.192Z,6.30
2018-07-11T19:16:50.400Z,5.77
2018-07-11T19:20:30.026Z,6.63
2018-07-11T19:23:26.989Z,4.07
2018-07-11T19:28:18.218Z,4.37
2018-07-11T19:31:03.622Z,6.73
2018-07-11T19:34:10.144Z,5.00
2018-07-11T19:36:59.403Z,4.33
2018-07-11T19:41:50.328Z,4.90
2018-07-11T19:44:37.096Z,4.67
2018-07-11T19:48:27.257Z,5.00
2018-07-11T19:51:09.396Z,4.63
2018-07-11T19:53:55.104Z,4.30
2018-07-11T19:56:42.018Z,5.87
2018-07-11T19:59:11.497Z,5.27
2018-07-11T20:01:40.912Z,4.53
2018-07-11T20:04:11.358Z,7.30
2018-07-11T20:06:40.832Z,5.20
2018-07-11T20:09:10.552Z,6.53
2018-07-11T20:11:39.987Z,4.33
2018-07-11T20:14:09.381Z,6.67
2018-07-11T20:16:38.910Z,4.67
2018-07-11T20:19:08.273Z,6.53
2018-07-11T20:21:37.688Z,5.73
2018-07-11T20:24:07.083Z,6.37
2018-07-11T20:26:36.551Z,4.83
2018-07-11T20:29:06.126Z,5.00
2018-07-11T20:31:35.494Z,5.53
2018-07-11T20:34:04.869Z,5.03
2018-07-11T20:36:35.041Z,6.53
2018-07-11T20:39:05.197Z,6.13
2018-07-11T20:41:34.689Z,4.40
2018-07-11T20:44:04.105Z,4.50
2018-07-11T20:46:36.194Z,5.53
2018-07-11T20:49:11.412Z,5.63
2018-07-11T20:51:40.817Z,5.17
2018-07-11T20:54:10.306Z,5.83
2018-07-11T20:56:39.697Z,5.33
2018-07-11T20:59:26.037Z,6.00
2018-07-11T21:02:12.284Z,5.60
2018-07-11T21:05:46.721Z,6.50
2018-07-11T21:10:51.181Z,6.03
2018-07-11T21:15:09.230Z,3.90
2018-07-11T21:18:11.605Z,6.87
2018-07-11T21:20:41.040Z,6.20
2018-07-11T21:23:12.479Z,4.73
2018-07-11T21:25:41.894Z,4.60
2018-07-11T21:28:11.433Z,6.33
2018-07-11T21:30:40.818Z,5.17
2018-07-11T21:33:10.310Z,4.93
2018-07-11T21:35:39.817Z,6.73
2018-07-11T21:38:09.278Z,4.13
2018-07-11T21:40:38.723Z,5.40
2018-07-11T21:43:08.073Z,6.97
2018-07-11T21:45:37.477Z,6.80
2018-07-11T21:48:06.836Z,7.20
2018-07-11T21:50:36.241Z,6.37
2018-07-11T21:53:05.659Z,6.87
2018-07-11T21:55:35.004Z,7.60
2018-07-11T21:58:04.700Z,5.33
2018-07-11T22:00:38.833Z,6.30
2018-07-11T22:03:09.584Z,6.13
2018-07-11T22:05:39.278Z,6.37
2018-07-11T22:08:09.440Z,8.33
2018-07-11T22:10:39.996Z,6.07
2018-07-11T22:13:09.798Z,6.10
2018-07-11T22:15:39.136Z,8.13
2018-07-11T22:18:25.738Z,6.57
2018-07-11T22:20:53.472Z,6.73
2018-07-11T22:23:21.239Z,7.83
2018-07-11T22:25:49.005Z,8.57
2018-07-11T22:28:16.770Z,6.27
2018-07-11T22:30:44.552Z,6.37
2018-07-11T22:33:12.261Z,6.90
2018-07-11T22:35:39.989Z,6.60
2018-07-11T22:38:07.730Z,6.67
2018-07-11T22:40:35.922Z,8.13
2018-07-11T22:43:04.099Z,7.47
2018-07-11T22:45:31.840Z,7.37
2018-07-11T22:47:59.633Z,7.73
2018-07-11T22:50:27.933Z,7.33
2018-07-11T22:52:55.660Z,8.50
2018-07-11T22:55:23.596Z,6.80
2018-07-11T22:57:51.577Z,8.20
2018-07-11T23:00:19.354Z,31.73
2018-07-11T23:02:47.111Z,9.57
2018-07-11T23:05:14.892Z,22.57
2018-07-11T23:07:43.639Z,21.13
2018-07-11T23:10:11.366Z,7.40
2018-07-11T23:12:39.089Z,7.13
2018-07-11T23:15:06.906Z,8.27
2018-07-11T23:17:34.632Z,7.37
2018-07-11T23:20:02.390Z,6.70
2018-07-11T23:22:30.157Z,6.97
2018-07-11T23:24:57.916Z,6.70
2018-07-11T23:27:25.713Z,6.70
2018-07-11T23:29:53.441Z,7.17
2018-07-11T23:32:21.191Z,7.67
2018-07-11T23:34:48.933Z,9.07
2018-07-11T23:37:16.734Z,7.90
2018-07-11T23:39:44.466Z,7.70
2018-07-11T23:42:12.234Z,7.77
2018-07-11T23:44:39.969Z,7.23
2018-07-11T23:47:07.722Z,9.30
2018-07-11T23:49:35.459Z,7.43
2018-07-11T23:52:03.247Z,7.40
2018-07-11T23:54:30.966Z,6.97
2018-07-11T23:56:58.709Z,7.53
2018-07-11T23:59:26.467Z,8.93
